createdAt,value
2018-12-07T00:02:30.274Z,12.34
2018-12-07T00:05:33.880Z,12.35
2018-12-07T00:08:37.547Z,12.36
2018-12-07T00:11:41.123Z,12.33
2018-12-07T00:14:44.598Z,12.33
2018-12-07T00:17:48.093Z,12.35
2018-12-07T00:20:51.684Z,12.39
2018-12-07T00:23:55.230Z,12.41
2018-12-07T00:26:58.805Z,12.43
2018-12-07T00:30:02.892Z,12.42
2018-12-07T00:33:06.617Z,12.37
2018-12-07T00:36:10.543Z,12.36
2018-12-07T00:39:15.261Z,12.33
2018-12-07T00:42:18.925Z,12.33
2018-12-07T00:45:22.404Z,12.43
2018-12-07T00:48:25.900Z,12.39
2018-12-07T00:51:29.560Z,12.36
2018-12-07T00:54:33.187Z,12.38
2018-12-07T00:57:36.654Z,12.36
2018-12-07T01:00:40.061Z,12.48
2018-12-07T01:03:43.563Z,12.40
2018-12-07T01:06:47.172Z,12.45
2018-12-07T01:09:50.858Z,12.37
2018-12-07T01:12:54.800Z,12.36
2018-12-07T01:15:58.487Z,12.38
2018-12-07T01:19:02.237Z,12.30
2018-12-07T01:22:05.801Z,12.29
2018-12-07T01:25:09.273Z,12.28
2018-12-07T01:28:12.783Z,12.28
2018-12-07T01:31:16.567Z,12.26
2018-12-07T01:34:20.116Z,12.30
2018-12-07T01:37:23.773Z,12.27
2018-12-07T01:40:28.567Z,12.29
2018-12-07T01:43:32.180Z,12.30
2018-12-07T01:46:35.821Z,12.28
2018-12-07T01:49:39.473Z,12.33
2018-12-07T01:52:43.135Z,12.36
2018-12-07T01:55:46.763Z,12.40
2018-12-07T01:58:50.434Z,12.37
2018-12-07T02:01:54.102Z,12.33
2018-12-07T02:04:57.570Z,12.33
2018-12-07T02:08:01.173Z,12.36
2018-12-07T02:11:04.703Z,12.31
2018-12-07T02:14:08.281Z,12.27
2018-12-07T02:17:11.771Z,12.33
2018-12-07T02:20:15.463Z,12.33
2018-12-07T02:23:19.089Z,12.31
2018-12-07T02:26:22.775Z,12.31
2018-12-07T02:29:26.310Z,12.31
2018-12-07T02:32:29.818Z,12.31
2018-12-07T02:35:33.376Z,12.27
2018-12-07T02:38:37.275Z,12.29
2018-12-07T02:41:40.891Z,12.29
2018-12-07T02:44:44.551Z,12.28
2018-12-07T02:47:48.445Z,12.28
2018-12-07T02:50:52.310Z,12.26
2018-12-07T02:53:55.930Z,12.24
2018-12-07T02:56:59.599Z,12.27
2018-12-07T03:00:03.421Z,12.32
2018-12-07T03:03:07.014Z,12.27
2018-12-07T03:06:10.634Z,12.24
2018-12-07T03:09:14.055Z,12.27
2018-12-07T03:12:17.588Z,12.27
2018-12-07T03:15:21.187Z,12.25
2018-12-07T03:18:30.245Z,12.27
2018-12-07T03:21:33.837Z,12.27
2018-12-07T03:24:37.408Z,12.33
2018-12-07T03:27:41.016Z,12.34
2018-12-07T03:30:44.593Z,12.35
2018-12-07T03:33:48.124Z,12.35
2018-12-07T03:36:51.736Z,12.42
2018-12-07T03:39:55.398Z,12.41
2018-12-07T03:42:58.946Z,12.40
2018-12-07T03:46:02.715Z,12.41
2018-12-07T03:49:06.148Z,12.40
2018-12-07T03:52:09.869Z,12.37
2018-12-07T03:55:13.522Z,12.33
2018-12-07T03:58:17.273Z,12.37
2018-12-07T04:01:20.833Z,12.36
2018-12-07T04:04:24.575Z,12.39
2018-12-07T04:07:28.099Z,12.43
2018-12-07T04:10:31.662Z,12.43
2018-12-07T04:13:35.326Z,12.48
2018-12-07T04:16:38.858Z,12.53
2018-12-07T04:19:42.329Z,12.50
2018-12-07T04:22:45.873Z,12.50
2018-12-07T04:25:49.325Z,12.48
2018-12-07T04:28:52.845Z,12.45
2018-12-07T04:31:56.409Z,12.50
2018-12-07T04:34:59.812Z,12.49
2018-12-07T04:38:03.497Z,12.47
2018-12-07T04:41:06.989Z,12.51
2018-12-07T04:44:10.597Z,12.52
2018-12-07T04:47:14.050Z,12.54
2018-12-07T04:50:18.825Z,12.50
2018-12-07T04:53:23.418Z,12.48
2018-12-07T04:56:30.890Z,12.48
2018-12-07T04:59:34.633Z,12.48
2018-12-07T05:02:38.148Z,12.50
2018-12-07T05:05:41.758Z,12.44
2018-12-07T05:08:45.355Z,12.48
2018-12-07T05:11:48.985Z,12.41
2018-12-07T05:14:52.547Z,12.46
2018-12-07T05:17:56.217Z,12.36
2018-12-07T05:20:59.629Z,12.43
2018-12-07T05:24:03.327Z,12.36
2018-12-07T05:27:06.891Z,12.38
2018-12-07T05:30:10.490Z,12.34
2018-12-07T05:33:14.308Z,12.20
2018-12-07T05:36:17.829Z,12.18
2018-12-07T05:39:21.380Z,12.18
2018-12-07T05:42:24.918Z,12.21
2018-12-07T05:45:28.416Z,12.21
2018-12-07T05:48:32.086Z,12.22
2018-12-07T05:51:35.583Z,12.17
2018-12-07T05:54:39.090Z,12.17
2018-12-07T05:57:42.965Z,12.13
2018-12-07T06:00:46.647Z,12.09
2018-12-07T06:03:50.119Z,12.15
2018-12-07T06:06:53.541Z,12.13
2018-12-07T06:09:57.205Z,12.14
2018-12-07T06:13:00.795Z,12.18
2018-12-07T06:16:04.560Z,12.12
2018-12-07T06:19:08.174Z,12.13
2018-12-07T06:22:11.775Z,12.18
2018-12-07T06:25:15.398Z,12.08
2018-12-07T06:28:18.895Z,12.09
2018-12-07T06:31:26.535Z,12.10
2018-12-07T06:34:29.990Z,12.05
2018-12-07T06:37:33.488Z,12.01
2018-12-07T06:40:37.084Z,12.01
2018-12-07T06:43:41.130Z,12.02
2018-12-07T06:46:44.531Z,12.06
2018-12-07T06:49:48.001Z,12.10
2018-12-07T06:52:51.871Z,12.15
2018-12-07T06:55:55.309Z,12.15
2018-12-07T06:58:58.919Z,12.11
2018-12-07T07:02:02.630Z,12.14
2018-12-07T07:05:07.106Z,12.15
2018-12-07T07:08:10.626Z,12.16
2018-12-07T07:11:14.246Z,12.17
2018-12-07T07:14:17.730Z,12.19
2018-12-07T07:17:21.175Z,12.20
2018-12-07T07:20:24.989Z,12.18
2018-12-07T07:23:28.628Z,12.20
2018-12-07T07:26:32.087Z,12.28
2018-12-07T07:29:35.756Z,12.28
2018-12-07T07:32:39.390Z,12.29
2018-12-07T07:35:42.856Z,12.25
2018-12-07T07:38:46.399Z,12.24
2018-12-07T07:41:50.021Z,12.19
2018-12-07T07:44:53.662Z,12.16
2018-12-07T07:47:57.178Z,12.15
2018-12-07T07:51:01.075Z,12.11
2018-12-07T07:54:04.820Z,12.11
2018-12-07T07:57:08.271Z,12.18
2018-12-07T08:00:11.958Z,12.15
2018-12-07T08:03:15.568Z,12.15
2018-12-07T08:06:19.350Z,12.13
2018-12-07T08:09:23.025Z,12.12
2018-12-07T08:12:26.549Z,12.10
2018-12-07T08:15:31.062Z,12.13
2018-12-07T08:18:34.492Z,12.20
2018-12-07T08:21:38.090Z,12.14
2018-12-07T08:24:41.592Z,12.24
2018-12-07T08:27:45.152Z,12.30
2018-12-07T08:30:48.826Z,12.26
2018-12-07T08:33:52.463Z,12.27
2018-12-07T08:36:55.964Z,12.26
2018-12-07T08:40:00.638Z,12.24
2018-12-07T08:43:04.148Z,12.27
2018-12-07T08:46:07.732Z,12.28
2018-12-07T08:49:11.149Z,12.27
2018-12-07T08:52:14.607Z,12.28
2018-12-07T08:55:18.218Z,12.29
2018-12-07T08:58:21.838Z,12.32
2018-12-07T09:01:25.224Z,12.36
2018-12-07T09:04:28.856Z,12.33
2018-12-07T09:07:32.260Z,12.32
2018-12-07T09:10:35.728Z,12.30
2018-12-07T09:13:39.151Z,12.28
2018-12-07T09:16:42.551Z,12.26
2018-12-07T09:19:45.985Z,12.34
2018-12-07T09:22:49.490Z,12.34
2018-12-07T09:25:52.988Z,12.37
2018-12-07T09:28:56.578Z,12.36
2018-12-07T09:31:59.972Z,12.37
2018-12-07T09:35:03.604Z,12.38
2018-12-07T09:38:13.099Z,12.41
2018-12-07T09:41:10.599Z,12.48
2018-12-07T09:44:14.091Z,12.47
2018-12-07T09:47:17.604Z,12.40
2018-12-07T09:50:21.211Z,12.40
2018-12-07T09:53:24.848Z,12.40
2018-12-07T09:56:28.424Z,12.37
2018-12-07T09:59:31.971Z,12.38
2018-12-07T10:02:35.526Z,12.35
2018-12-07T10:05:39.059Z,12.41
2018-12-07T10:08:42.541Z,12.34
2018-12-07T10:11:46.030Z,12.42
2018-12-07T10:14:49.410Z,12.38
2018-12-07T10:17:52.833Z,12.43
2018-12-07T10:20:56.622Z,12.47
2018-12-07T10:24:00.150Z,12.48
2018-12-07T10:27:07.069Z,12.49
2018-12-07T10:30:10.710Z,12.48
2018-12-07T10:33:14.290Z,12.50
2018-12-07T10:36:17.981Z,12.50
2018-12-07T10:39:21.709Z,12.48
2018-12-07T10:42:25.331Z,12.48
2018-12-07T10:45:29.935Z,12.54
2018-12-07T10:48:33.749Z,12.53
2018-12-07T10:51:37.536Z,12.51
2018-12-07T10:54:41.114Z,12.48
2018-12-07T10:57:44.585Z,12.52
2018-12-07T11:00:53.402Z,12.45
2018-12-07T11:04:02.325Z,12.45
2018-12-07T11:07:11.413Z,12.44
2018-12-07T11:10:20.230Z,12.40
2018-12-07T11:13:28.969Z,12.39
2018-12-07T11:16:37.777Z,12.35
2018-12-07T11:19:46.610Z,12.35
2018-12-07T11:22:55.654Z,12.40
2018-12-07T11:26:05.571Z,12.41
2018-12-07T11:29:16.301Z,12.36
2018-12-07T11:32:45.098Z,12.30
2018-12-07T11:35:48.670Z,12.24
2018-12-07T11:38:52.072Z,12.08
2018-12-07T11:41:55.491Z,12.00
2018-12-07T11:44:58.930Z,12.00
2018-12-07T11:48:02.632Z,11.95
2018-12-07T11:51:06.310Z,11.89
2018-12-07T11:54:09.682Z,11.87
2018-12-07T11:57:13.151Z,11.88
2018-12-07T12:00:16.684Z,11.88
2018-12-07T12:03:20.161Z,11.95
2018-12-07T12:06:23.976Z,11.97
2018-12-07T12:09:27.530Z,12.04
2018-12-07T12:12:30.953Z,12.11
2018-12-07T12:15:34.558Z,12.07
2018-12-07T12:18:38.014Z,12.10
2018-12-07T12:21:41.579Z,12.14
2018-12-07T12:24:45.158Z,12.05
2018-12-07T12:27:48.603Z,12.07
2018-12-07T12:30:52.627Z,12.05
2018-12-07T12:33:56.104Z,12.07
2018-12-07T12:36:59.835Z,12.06
2018-12-07T12:40:04.619Z,12.09
2018-12-07T12:43:08.294Z,12.05
2018-12-07T12:46:11.727Z,12.07
2018-12-07T12:49:15.178Z,12.15
2018-12-07T12:52:18.832Z,12.17
2018-12-07T12:55:22.263Z,12.14
2018-12-07T12:58:25.844Z,12.15
2018-12-07T13:01:29.254Z,12.15
2018-12-07T13:04:32.770Z,12.24
2018-12-07T13:07:36.547Z,12.28
2018-12-07T13:10:40.089Z,12.26
2018-12-07T13:13:43.680Z,12.28
2018-12-07T13:16:47.153Z,12.32
2018-12-07T13:19:50.811Z,12.33
2018-12-07T13:22:54.477Z,12.37
2018-12-07T13:25:57.896Z,12.38
2018-12-07T13:29:01.627Z,12.39
2018-12-07T13:32:05.539Z,12.35
2018-12-07T13:35:09.181Z,12.36
2018-12-07T13:38:12.632Z,12.40
2018-12-07T13:41:16.595Z,12.46
2018-12-07T13:44:20.124Z,12.42
2018-12-07T13:47:23.897Z,12.49
2018-12-07T13:50:33.013Z,12.51
2018-12-07T13:53:38.079Z,12.48
2018-12-07T13:56:40.120Z,12.53
2018-12-07T13:59:43.931Z,12.53
2018-12-07T14:02:47.645Z,12.56
2018-12-07T14:05:51.533Z,12.64
2018-12-07T14:08:54.932Z,12.73
2018-12-07T14:11:58.425Z,12.81
2018-12-07T14:15:02.086Z,12.84
2018-12-07T14:18:05.938Z,12.83
2018-12-07T14:21:09.363Z,12.83
2018-12-07T14:24:12.980Z,12.84
2018-12-07T14:27:16.614Z,12.82
2018-12-07T14:30:20.226Z,12.88
2018-12-07T14:33:23.839Z,12.88
2018-12-07T14:36:27.296Z,12.87
2018-12-07T14:39:30.997Z,12.83
2018-12-07T14:42:34.529Z,12.73
2018-12-07T14:45:38.081Z,12.69
2018-12-07T14:48:41.587Z,12.63
2018-12-07T14:51:45.196Z,12.59
2018-12-07T14:54:48.705Z,12.48
2018-12-07T14:57:52.315Z,12.40
2018-12-07T15:00:55.920Z,12.33
2018-12-07T15:03:59.804Z,12.33
2018-12-07T15:07:04.371Z,12.26
2018-12-07T15:10:09.115Z,12.19
2018-12-07T15:13:12.594Z,12.14
2018-12-07T15:16:16.007Z,12.13
2018-12-07T15:19:19.663Z,12.16
2018-12-07T15:22:23.341Z,12.16
2018-12-07T15:25:26.783Z,12.18
2018-12-07T15:28:30.486Z,12.20
2018-12-07T15:31:34.023Z,12.25
2018-12-07T15:34:37.640Z,12.24
2018-12-07T15:37:41.287Z,12.24
2018-12-07T15:40:44.900Z,12.27
2018-12-07T15:43:48.630Z,12.27
2018-12-07T15:46:51.911Z,12.25
2018-12-07T15:49:55.555Z,12.26
2018-12-07T15:52:59.297Z,12.40
2018-12-07T15:56:03.136Z,12.38
2018-12-07T15:59:06.859Z,12.37
2018-12-07T16:02:10.239Z,12.36
2018-12-07T16:05:13.851Z,12.33
2018-12-07T16:08:24.754Z,12.27
2018-12-07T16:11:21.251Z,12.30
2018-12-07T16:14:24.766Z,12.30
2018-12-07T16:17:28.379Z,12.33
2018-12-07T16:20:32.271Z,12.35
2018-12-07T16:23:35.888Z,12.45
2018-12-07T16:26:39.455Z,12.48
2018-12-07T16:29:42.957Z,12.41
2018-12-07T16:32:46.647Z,12.37
2018-12-07T16:35:50.129Z,12.41
2018-12-07T16:38:54.772Z,12.37
2018-12-07T16:41:58.265Z,12.43
2018-12-07T16:45:01.872Z,12.46
2018-12-07T16:48:05.475Z,12.44
2018-12-07T16:51:08.892Z,12.45
2018-12-07T16:54:12.677Z,12.39
2018-12-07T16:57:16.442Z,12.30
2018-12-07T17:00:20.292Z,12.17
2018-12-07T17:03:24.054Z,12.12
2018-12-07T17:06:27.881Z,12.11
2018-12-07T17:09:31.324Z,12.13
2018-12-07T17:12:34.862Z,12.13
2018-12-07T17:15:40.341Z,12.14
2018-12-07T17:18:42.457Z,12.24
2018-12-07T17:21:46.283Z,12.20
2018-12-07T17:24:50.130Z,12.27
2018-12-07T17:27:53.908Z,12.22
2018-12-07T17:30:57.608Z,12.23
2018-12-07T17:34:01.184Z,12.21
2018-12-07T17:37:07.260Z,12.13
2018-12-07T17:40:11.620Z,12.20
2018-12-07T17:43:16.224Z,12.24
2018-12-07T17:46:20.085Z,12.20
2018-12-07T17:49:23.920Z,12.22
2018-12-07T17:52:27.829Z,12.21
2018-12-07T17:55:31.658Z,12.19
2018-12-07T17:58:35.174Z,12.13
2018-12-07T18:01:38.843Z,12.14
2018-12-07T18:04:42.476Z,12.06
2018-12-07T18:07:47.124Z,12.02
2018-12-07T18:10:51.476Z,11.98
2018-12-07T18:13:55.081Z,11.89
2018-12-07T18:16:58.837Z,11.86
2018-12-07T18:20:02.212Z,11.83
2018-12-07T18:23:06.018Z,11.73
2018-12-07T18:26:09.700Z,11.74
2018-12-07T18:29:13.514Z,11.63
2018-12-07T18:32:17.146Z,11.50
2018-12-07T18:35:20.944Z,11.38
2018-12-07T18:38:24.685Z,11.22
2018-12-07T18:41:28.414Z,11.11
2018-12-07T18:44:32.744Z,11.09
2018-12-07T18:47:37.846Z,10.98
2018-12-07T18:50:41.299Z,10.91
2018-12-07T18:53:46.254Z,10.88
2018-12-07T18:56:50.070Z,10.83
2018-12-07T18:59:53.787Z,10.78
2018-12-07T19:02:57.499Z,10.71
2018-12-07T19:06:01.174Z,10.76
2018-12-07T19:09:07.194Z,10.70
2018-12-07T19:12:11.911Z,10.69
2018-12-07T19:15:15.655Z,10.71
2018-12-07T19:18:18.979Z,10.72
2018-12-07T19:21:22.575Z,10.65
2018-12-07T19:24:26.113Z,10.57
2018-12-07T19:27:29.877Z,10.52
2018-12-07T19:30:33.197Z,10.52
2018-12-07T19:33:36.804Z,10.53
2018-12-07T19:36:41.145Z,10.55
2018-12-07T19:39:44.712Z,10.53
2018-12-07T19:42:48.199Z,10.51
2018-12-07T19:45:51.872Z,10.58
2018-12-07T19:48:56.508Z,10.60
2018-12-07T19:52:01.187Z,10.65
2018-12-07T19:55:05.263Z,10.62
2018-12-07T19:58:09.007Z,10.60
2018-12-07T20:01:12.595Z,10.65
2018-12-07T20:04:16.401Z,10.67
2018-12-07T20:07:20.068Z,10.73
2018-12-07T20:10:23.936Z,10.74
2018-12-07T20:13:27.479Z,10.73
2018-12-07T20:16:31.123Z,10.70
2018-12-07T20:19:34.683Z,10.68
2018-12-07T20:22:38.521Z,10.61
2018-12-07T20:25:42.237Z,10.62
2018-12-07T20:28:46.176Z,10.59
2018-12-07T20:31:50.105Z,10.63
2018-12-07T20:34:53.709Z,10.60
2018-12-07T20:37:57.642Z,10.62
2018-12-07T20:41:01.404Z,10.59
2018-12-07T20:44:05.238Z,10.63
2018-12-07T20:47:09.007Z,10.61
2018-12-07T20:50:12.801Z,10.60
2018-12-07T20:53:16.535Z,10.58
2018-12-07T20:56:21.035Z,10.57
2018-12-07T20:59:24.655Z,10.53
2018-12-07T21:02:28.559Z,10.50
2018-12-07T21:05:57.216Z,10.47
2018-12-07T21:09:25.371Z,10.42
2018-12-07T21:13:38.703Z,10.42
2018-12-07T21:17:00.065Z,10.36
2018-12-07T21:20:24.298Z,10.39
2018-12-07T21:23:28.084Z,10.31
2018-12-07T21:26:33.019Z,10.25
2018-12-07T21:29:36.658Z,10.25
2018-12-07T21:32:40.046Z,10.24
2018-12-07T21:35:56.658Z,10.24
2018-12-07T21:39:00.355Z,10.14
2018-12-07T21:42:03.989Z,10.11
2018-12-07T21:45:07.626Z,10.08
2018-12-07T21:48:24.888Z,9.96
2018-12-07T21:52:32.665Z,9.96
2018-12-07T21:55:37.082Z,9.90
2018-12-07T21:58:41.110Z,10.01
2018-12-07T22:01:44.691Z,9.97
2018-12-07T22:04:49.023Z,9.98
2018-12-07T22:07:53.055Z,10.00
2018-12-07T22:10:56.429Z,9.93
2018-12-07T22:14:00.141Z,9.89
2018-12-07T22:17:04.757Z,9.89
2018-12-07T22:20:09.384Z,9.83
2018-12-07T22:23:13.321Z,9.77
2018-12-07T22:26:16.522Z,9.74
2018-12-07T22:29:20.833Z,9.77
2018-12-07T22:32:24.487Z,9.77
2018-12-07T22:35:28.057Z,9.72
2018-12-07T22:38:31.827Z,9.68
2018-12-07T22:41:35.479Z,9.75
2018-12-07T22:44:39.069Z,9.72
2018-12-07T22:47:42.632Z,9.68
2018-12-07T22:50:46.418Z,9.67
2018-12-07T22:53:50.359Z,9.64
2018-12-07T22:56:55.093Z,9.70
2018-12-07T22:59:58.794Z,9.66
2018-12-07T23:03:02.337Z,9.65
2018-12-07T23:06:06.253Z,9.60
2018-12-07T23:09:09.864Z,9.59
2018-12-07T23:12:13.413Z,9.57
2018-12-07T23:15:17.071Z,9.46
2018-12-07T23:18:20.604Z,9.41
2018-12-07T23:21:24.134Z,9.39
2018-12-07T23:24:27.785Z,9.35
2018-12-07T23:27:31.272Z,9.28
2018-12-07T23:30:34.847Z,9.28
2018-12-07T23:33:38.421Z,9.29
2018-12-07T23:36:41.998Z,9.09
2018-12-07T23:39:45.605Z,9.08
2018-12-07T23:42:49.154Z,8.97
2018-12-07T23:45:52.637Z,8.95
2018-12-07T23:48:56.327Z,8.96
2018-12-07T23:52:00.014Z,8.94
2018-12-07T23:55:03.779Z,8.99
2018-12-07T23:58:07.563Z,8.96
